Time;durP1;ratioP1;P1;durP2;ratioP2;P2;SDS_P1;SDS_P2;PMS_P1;PMS_P2;Temp;Humidity;BMP_temperature;BMP_pressure;BME280_temperature;BME280_humidity;BME280_pressure;Samples;Min_cycle;Max_cycle;Signal;HPM_P1;HPM_P2
2020/12/07 00:04:40;;;;;;;0.20;0.10;;;6.90;99.90;;;;;;10392538;28;20669;-73
2020/12/07 00:09:44;;;;;;;0.20;0.10;;;7.50;99.90;;;;;;10390156;28;20270;-74
2020/12/07 00:14:46;;;;;;;0.57;0.53;;;7.60;99.90;;;;;;10389198;28;20273;-75
2020/12/07 00:19:49;;;;;;;0.20;0.10;;;7.20;99.90;;;;;;10389460;28;20197;-75
2020/12/07 00:24:53;;;;;;;0.20;0.20;;;7.20;99.90;;;;;;10389042;28;20240;-74
2020/12/07 00:30:00;;;;;;;0.90;0.33;;;7.20;99.90;;;;;;10389995;28;20201;-74
2020/12/07 00:35:03;;;;;;;0.20;0.10;;;6.70;99.90;;;;;;10388140;28;20231;-74
2020/12/07 00:40:07;;;;;;;0.20;0.10;;;6.40;99.90;;;;;;10389116;28;20551;-74
2020/12/07 00:45:09;;;;;;;0.20;0.10;;;6.00;99.90;;;;;;10396924;28;20285;-75
2020/12/07 00:50:12;;;;;;;0.47;0.47;;;5.70;99.90;;;;;;10388009;28;20548;-74
2020/12/07 00:55:15;;;;;;;0.20;0.10;;;5.60;99.90;;;;;;10383257;28;20214;-74
2020/12/07 01:00:18;;;;;;;0.77;0.40;;;5.30;99.90;;;;;;10388417;28;20696;-73
2020/12/07 01:05:20;;;;;;;0.80;0.73;;;5.10;99.90;;;;;;10380248;28;20202;-75
2020/12/07 01:10:24;;;;;;;0.20;0.20;;;4.40;99.90;;;;;;10368079;28;20201;-75
2020/12/07 01:15:26;;;;;;;0.67;0.60;;;4.40;99.90;;;;;;10367647;28;20236;-72
2020/12/07 01:20:29;;;;;;;1.53;0.70;;;4.20;99.90;;;;;;10367264;28;20202;-72
2020/12/07 01:25:34;;;;;;;0.20;0.10;;;4.50;99.90;;;;;;10368156;28;20190;-73
2020/12/07 01:30:36;;;;;;;0.30;0.30;;;4.70;99.90;;;;;;10366730;28;20199;-73
2020/12/07 01:35:42;;;;;;;0.20;0.10;;;4.50;99.90;;;;;;10367817;28;20236;-73
2020/12/07 01:40:45;;;;;;;0.20;0.10;;;4.50;99.90;;;;;;10368217;28;20236;-74
2020/12/07 01:45:48;;;;;;;0.20;0.10;;;4.60;99.90;;;;;;10367448;28;20277;-74
2020/12/07 01:50:50;;;;;;;0.20;0.20;;;4.60;99.90;;;;;;10368465;28;20277;-74
2020/12/07 01:55:58;;;;;;;0.20;0.10;;;4.50;99.90;;;;;;10367545;28;20264;-73
2020/12/07 02:01:02;;;;;;;0.20;0.17;;;4.00;99.90;;;;;;10369677;28;20595;-73
2020/12/07 02:06:05;;;;;;;0.20;0.10;;;4.00;99.90;;;;;;10367559;28;20199;-73
2020/12/07 02:11:09;;;;;;;0.20;0.17;;;4.20;99.90;;;;;;10365997;28;20199;-73
2020/12/07 02:16:11;;;;;;;0.20;0.10;;;4.80;99.90;;;;;;10365536;28;20250;-73
2020/12/07 02:21:15;;;;;;;0.20;0.07;;;5.80;99.90;;;;;;10367090;28;20210;-73
2020/12/07 02:26:17;;;;;;;0.20;0.10;;;5.80;99.90;;;;;;10375042;28;20198;-73
2020/12/07 02:31:20;;;;;;;0.20;0.10;;;6.30;99.90;;;;;;10374718;28;20714;-74
2020/12/07 02:36:23;;;;;;;1.80;0.73;;;5.80;99.90;;;;;;10374535;28;20218;-74
2020/12/07 02:41:45;;;;;;;0.70;0.70;;;5.20;99.90;;;;;;10359237;28;20194;-74
2020/12/07 02:46:48;;;;;;;0.20;0.10;;;4.80;99.90;;;;;;10374157;28;20202;-74
2020/12/07 02:51:52;;;;;;;0.20;0.10;;;4.70;99.90;;;;;;10373005;28;20203;-74
2020/12/07 02:56:54;;;;;;;0.20;0.10;;;5.00;99.90;;;;;;10373644;28;20226;-74
2020/12/07 03:01:57;;;;;;;0.20;0.10;;;5.80;99.90;;;;;;10373742;28;20199;-74
2020/12/07 03:07:00;;;;;;;0.20;0.00;;;6.00;99.90;;;;;;10373310;28;20217;-75
2020/12/07 03:12:03;;;;;;;0.20;0.10;;;6.30;99.90;;;;;;10372811;28;20622;-75
2020/12/07 03:17:05;;;;;;;0.20;0.00;;;6.60;99.90;;;;;;10372725;28;20246;-73
2020/12/07 03:22:09;;;;;;;0.20;0.00;;;7.20;99.90;;;;;;10337471;28;20287;-73
2020/12/07 03:27:12;;;;;;;0.20;0.10;;;7.20;99.90;;;;;;10371710;28;20207;-73
2020/12/07 03:32:14;;;;;;;0.20;0.10;;;7.40;99.90;;;;;;10353889;28;20239;-73
2020/12/07 03:37:18;;;;;;;0.20;0.10;;;7.70;99.90;;;;;;10355497;28;20230;-73
2020/12/07 03:42:20;;;;;;;0.20;0.10;;;7.50;99.90;;;;;;10371525;28;20190;-74
2020/12/07 03:47:23;;;;;;;0.20;0.10;;;7.20;99.90;;;;;;10371746;28;20195;-73
2020/12/07 03:52:26;;;;;;;0.20;0.20;;;7.20;99.90;;;;;;10371482;28;20568;-73
2020/12/07 03:57:29;;;;;;;0.20;0.10;;;7.50;99.90;;;;;;10371606;28;20300;-75
2020/12/07 04:02:32;;;;;;;0.20;0.10;;;7.60;99.90;;;;;;10371551;28;20722;-74
2020/12/07 04:07:36;;;;;;;0.20;0.00;;;7.60;99.90;;;;;;10370937;28;20532;-74
2020/12/07 04:12:38;;;;;;;0.20;0.10;;;7.60;99.90;;;;;;10370772;28;20322;-74
2020/12/07 04:17:41;;;;;;;0.23;0.20;;;7.60;99.90;;;;;;10370594;28;20232;-74
2020/12/07 04:22:44;;;;;;;0.20;0.10;;;7.60;99.90;;;;;;10369837;28;20201;-74
2020/12/07 04:27:46;;;;;;;0.20;0.10;;;7.50;99.90;;;;;;10370543;28;20187;-76
2020/12/07 04:32:49;;;;;;;0.47;0.20;;;7.30;99.90;;;;;;10369866;28;20225;-75
2020/12/07 04:37:52;;;;;;;0.20;0.10;;;7.30;99.90;;;;;;10369976;28;20222;-75
2020/12/07 04:42:56;;;;;;;0.20;0.10;;;7.30;99.90;;;;;;10369783;28;20209;-75
2020/12/07 04:48:01;;;;;;;0.20;0.20;;;7.20;99.90;;;;;;10367259;28;20203;-74
2020/12/07 04:53:04;;;;;;;0.20;0.10;;;7.30;99.90;;;;;;10368977;28;20257;-75
2020/12/07 04:58:07;;;;;;;0.30;0.20;;;7.30;99.90;;;;;;10368273;28;20230;-75
2020/12/07 05:03:10;;;;;;;0.40;0.17;;;7.30;99.90;;;;;;10369746;28;20527;-74
2020/12/07 05:08:14;;;;;;;0.20;0.10;;;7.30;99.90;;;;;;10368689;28;20302;-74
2020/12/07 05:13:24;;;;;;;0.20;0.00;;;7.40;99.90;;;;;;10367186;28;20207;-75
2020/12/07 05:18:27;;;;;;;0.20;0.10;;;7.40;99.90;;;;;;10383499;28;20310;-75
2020/12/07 05:23:35;;;;;;;0.20;0.00;;;7.40;99.90;;;;;;10368046;28;20265;-75
2020/12/07 05:28:40;;;;;;;0.20;0.10;;;7.50;99.90;;;;;;10367868;28;20720;-74
2020/12/07 05:33:43;;;;;;;0.20;0.10;;;7.80;99.90;;;;;;10367371;28;20580;-74
2020/12/07 05:38:49;;;;;;;0.30;0.30;;;7.90;99.90;;;;;;10367860;28;20226;-75
2020/12/07 05:43:53;;;;;;;0.20;0.10;;;8.00;99.90;;;;;;10367135;28;20199;-74
2020/12/07 05:48:57;;;;;;;0.20;0.10;;;7.90;99.90;;;;;;10366202;28;20237;-74
2020/12/07 05:54:01;;;;;;;0.20;0.10;;;7.80;99.90;;;;;;10367011;28;20206;-74
2020/12/07 05:59:07;;;;;;;0.20;0.10;;;8.00;99.90;;;;;;10373601;28;20652;-72
2020/12/07 06:04:10;;;;;;;0.20;0.10;;;8.20;99.90;;;;;;10375587;28;20373;-74
2020/12/07 06:09:21;;;;;;;0.20;0.20;;;8.30;99.90;;;;;;10375017;28;20203;-74
2020/12/07 06:14:24;;;;;;;1.60;0.67;;;8.30;99.90;;;;;;10374856;28;20210;-75
2020/12/07 06:19:26;;;;;;;0.20;0.10;;;8.40;99.90;;;;;;10374715;28;20629;-75
2020/12/07 06:24:39;;;;;;;0.37;0.30;;;8.40;99.90;;;;;;10375791;28;20223;-70
2020/12/07 06:29:57;;;;;;;0.20;0.10;;;8.40;99.90;;;;;;10379610;28;20233;-74
2020/12/07 06:35:00;;;;;;;0.20;0.20;;;8.20;99.90;;;;;;10375174;28;20266;-74
2020/12/07 06:40:06;;;;;;;0.40;0.30;;;8.00;99.90;;;;;;10374190;28;20194;-74
2020/12/07 06:45:23;;;;;;;0.30;0.20;;;8.10;99.90;;;;;;10373045;28;20241;-74
2020/12/07 06:50:29;;;;;;;0.20;0.10;;;8.20;99.90;;;;;;10373526;28;20222;-72
2020/12/07 06:55:33;;;;;;;0.20;0.10;;;8.20;99.90;;;;;;10373120;28;20574;-73
2020/12/07 07:00:36;;;;;;;0.20;0.10;;;8.20;99.90;;;;;;10373348;28;20199;-73
2020/12/07 07:05:39;;;;;;;0.20;0.10;;;8.20;99.90;;;;;;10372947;28;20286;-75
2020/12/07 07:10:43;;;;;;;0.37;0.27;;;8.10;99.90;;;;;;10353794;28;20201;-75
2020/12/07 07:15:47;;;;;;;0.80;0.50;;;8.00;99.90;;;;;;10372433;28;20309;-75
2020/12/07 07:20:49;;;;;;;0.23;0.17;;;8.20;99.90;;;;;;10372988;28;20279;-73
2020/12/07 07:25:56;;;;;;;0.20;0.10;;;8.40;99.90;;;;;;10380434;28;20616;-75
2020/12/07 07:31:04;;;;;;;0.43;0.40;;;8.50;99.90;;;;;;10388061;28;20223;-75
2020/12/07 07:36:07;;;;;;;0.20;0.10;;;8.50;99.90;;;;;;10365665;28;20249;-74
2020/12/07 07:41:23;;;;;;;0.20;0.10;;;8.50;99.90;;;;;;10349496;28;20584;-73
2020/12/07 07:46:26;;;;;;;0.30;0.30;;;8.60;99.90;;;;;;10350482;28;20198;-74
2020/12/07 08:18:31;;;;;;;0.27;0.27;;;9.10;99.90;;;;;;10370381;28;20230;-73
2020/12/07 08:23:34;;;;;;;0.20;0.10;;;9.20;99.90;;;;;;10369987;28;20561;-74
2020/12/07 08:28:41;;;;;;;0.30;0.30;;;9.20;99.90;;;;;;10398819;28;20209;-75
2020/12/07 08:33:58;;;;;;;0.20;0.10;;;9.20;99.90;;;;;;10410051;28;20703;-76
2020/12/07 08:39:02;;;;;;;0.20;0.10;;;9.40;99.90;;;;;;10393150;28;20346;-75
2020/12/07 08:44:07;;;;;;;0.40;0.40;;;9.50;99.90;;;;;;10386722;28;20218;-77
2020/12/07 08:49:10;;;;;;;0.20;0.17;;;9.60;99.90;;;;;;10367456;28;20708;-74
2020/12/07 08:54:14;;;;;;;0.53;0.53;;;9.80;99.90;;;;;;10365482;28;20285;-77
2020/12/07 08:59:17;;;;;;;0.20;0.10;;;9.90;99.90;;;;;;10367479;28;20242;-72
2020/12/07 09:04:20;;;;;;;0.63;0.57;;;9.90;99.90;;;;;;10360803;28;20202;-74
2020/12/07 09:09:22;;;;;;;0.50;0.30;;;9.90;99.90;;;;;;10365724;28;20218;-72
2020/12/07 09:14:26;;;;;;;0.40;0.40;;;9.90;99.90;;;;;;10368120;28;20526;-73
2020/12/07 09:19:28;;;;;;;0.67;0.30;;;9.90;99.90;;;;;;10367089;28;20223;-70
2020/12/07 09:24:31;;;;;;;0.20;0.10;;;9.90;99.90;;;;;;10366826;28;20209;-74
2020/12/07 09:29:34;;;;;;;0.27;0.20;;;9.80;99.90;;;;;;10368374;28;20230;-76
2020/12/07 09:34:37;;;;;;;0.20;0.20;;;9.70;99.90;;;;;;10366691;28;20235;-75
2020/12/07 09:39:40;;;;;;;0.50;0.40;;;9.80;99.90;;;;;;10367402;28;20203;-73
2020/12/07 09:44:43;;;;;;;0.37;0.27;;;10.00;99.90;;;;;;10366525;28;20198;-74
2020/12/07 09:49:46;;;;;;;1.93;1.10;;;10.50;99.90;;;;;;10369009;28;20203;-74
2020/12/07 09:54:48;;;;;;;0.47;0.43;;;10.70;99.90;;;;;;10366749;28;20205;-75
2020/12/07 09:59:52;;;;;;;0.47;0.47;;;10.70;99.90;;;;;;10364888;28;20302;-75
2020/12/07 10:10:37;;;;;;;0.20;0.20;;;11.10;99.90;;;;;;11917040;23;20319;-73
2020/12/07 10:15:44;;;;;;;0.50;0.30;;;11.40;99.90;;;;;;10314124;28;20223;-76
2020/12/07 10:20:47;;;;;;;0.30;0.30;;;11.70;99.90;;;;;;10367438;28;20276;-76
2020/12/07 10:25:50;;;;;;;0.20;0.00;;;11.80;99.90;;;;;;10366135;28;20278;-74
2020/12/07 10:31:02;;;;;;;0.20;0.10;;;11.70;99.90;;;;;;10365822;28;20199;-73
2020/12/07 10:36:05;;;;;;;0.53;0.50;;;11.60;99.90;;;;;;10368592;28;20352;-74
2020/12/07 10:41:07;;;;;;;0.20;0.10;;;11.60;99.90;;;;;;10370470;28;20707;-75
2020/12/07 10:46:12;;;;;;;0.30;0.30;;;11.50;99.90;;;;;;10374820;28;20244;-67
2020/12/07 10:51:16;;;;;;;1.13;0.30;;;11.80;99.90;;;;;;10372439;28;20206;-73
2020/12/07 10:56:19;;;;;;;0.20;0.10;;;12.30;99.90;;;;;;10372809;28;20237;-72
2020/12/07 11:01:23;;;;;;;0.20;0.20;;;12.50;99.90;;;;;;10371283;28;20253;-71
2020/12/07 11:06:30;;;;;;;0.20;0.07;;;12.50;99.90;;;;;;10371757;28;20278;-73
2020/12/07 11:11:33;;;;;;;1.03;0.40;;;12.40;99.90;;;;;;10372891;28;20277;-73
2020/12/07 11:16:36;;;;;;;0.50;0.40;;;12.30;99.90;;;;;;10372077;28;20265;-73
2020/12/07 11:21:39;;;;;;;0.60;0.30;;;12.10;99.90;;;;;;10353425;28;20203;-76
2020/12/07 11:26:41;;;;;;;0.37;0.20;;;12.10;99.90;;;;;;10369889;28;20201;-73
2020/12/07 11:31:47;;;;;;;2.60;0.57;;;12.20;99.90;;;;;;10370965;28;20203;-71
2020/12/07 11:36:51;;;;;;;1.13;0.77;;;12.20;99.90;;;;;;10371097;28;20293;-73
2020/12/07 11:47:13;;;;;;;0.20;0.10;;;12.00;99.90;;;;;;10357674;28;20285;-73
2020/12/07 11:52:16;;;;;;;0.40;0.40;;;12.10;99.90;;;;;;10388020;28;20205;-73
2020/12/07 11:57:19;;;;;;;0.20;0.13;;;12.20;99.90;;;;;;10392670;28;20416;-74
2020/12/07 12:02:23;;;;;;;0.20;0.10;;;12.30;99.90;;;;;;10396574;28;20210;-72
2020/12/07 12:07:26;;;;;;;0.20;0.10;;;12.40;99.90;;;;;;10384672;28;20199;-72
2020/12/07 12:12:29;;;;;;;0.47;0.33;;;12.70;99.90;;;;;;10334886;28;20237;-72
2020/12/07 12:17:32;;;;;;;0.90;0.87;;;12.80;99.90;;;;;;10367093;28;20305;-73
2020/12/07 12:22:35;;;;;;;0.20;0.17;;;12.70;99.90;;;;;;10368792;28;20199;-71
2020/12/07 12:27:37;;;;;;;1.03;0.50;;;12.70;99.90;;;;;;10368660;28;20197;-73
2020/12/07 12:32:40;;;;;;;0.20;0.00;;;12.80;99.90;;;;;;10368914;28;20201;-73
2020/12/07 12:37:43;;;;;;;0.20;0.10;;;12.70;99.90;;;;;;10368851;28;20229;-74
2020/12/07 12:42:45;;;;;;;1.07;0.20;;;12.70;99.90;;;;;;10350935;28;20270;-74
2020/12/07 12:47:49;;;;;;;0.57;0.47;;;12.60;99.90;;;;;;10368785;28;20191;-72
2020/12/07 12:52:52;;;;;;;0.30;0.30;;;12.80;99.90;;;;;;10349512;28;20203;-72
2020/12/07 12:57:54;;;;;;;0.20;0.10;;;12.60;99.90;;;;;;10367855;28;20226;-74
2020/12/07 13:02:58;;;;;;;1.60;0.80;;;12.60;99.90;;;;;;10340955;28;20223;-75
2020/12/07 13:08:00;;;;;;;0.87;0.53;;;12.50;99.90;;;;;;10326892;28;20218;-73
2020/12/07 13:13:03;;;;;;;0.47;0.30;;;12.40;99.90;;;;;;10326102;28;20322;-73
2020/12/07 13:18:08;;;;;;;0.70;0.70;;;12.40;99.90;;;;;;10327346;28;20228;-73
2020/12/07 13:23:17;;;;;;;0.30;0.30;;;12.50;99.90;;;;;;10327413;28;20535;-73
2020/12/07 13:28:19;;;;;;;0.60;0.37;;;12.60;99.90;;;;;;10326722;28;20677;-76
2020/12/07 13:33:23;;;;;;;0.37;0.30;;;12.60;99.90;;;;;;10309213;28;20195;-75
2020/12/07 13:38:26;;;;;;;1.70;0.57;;;12.60;99.90;;;;;;10325610;28;20261;-73
2020/12/07 13:43:29;;;;;;;0.30;0.30;;;12.60;99.90;;;;;;10325965;28;20377;-73
2020/12/07 13:48:32;;;;;;;0.70;0.40;;;12.50;99.90;;;;;;10325610;28;20609;-73
2020/12/07 13:53:35;;;;;;;0.27;0.27;;;12.50;99.90;;;;;;10326210;28;20203;-72
2020/12/07 13:58:37;;;;;;;0.73;0.57;;;12.50;99.90;;;;;;10325750;28;20285;-73
2020/12/07 14:03:46;;;;;;;1.40;1.30;;;12.40;99.90;;;;;;10326340;28;20279;-71
2020/12/07 14:08:48;;;;;;;1.40;0.30;;;12.50;99.90;;;;;;10325178;28;20199;-73
2020/12/07 14:13:51;;;;;;;0.50;0.50;;;12.50;99.90;;;;;;10325897;28;20594;-72
2020/12/07 14:19:00;;;;;;;2.23;0.27;;;12.40;99.90;;;;;;10329584;28;20230;-75
2020/12/07 14:24:07;;;;;;;1.10;0.73;;;12.50;99.90;;;;;;10333159;28;20275;-73
2020/12/07 14:29:52;;;;;;;0.90;0.73;;;12.50;99.90;;;;;;10333675;28;20199;-74
2020/12/07 14:40:24;;;;;;;0.60;0.43;;;12.90;99.90;;;;;;10288475;28;20657;-73
2020/12/07 14:45:31;;;;;;;0.30;0.30;;;12.70;99.90;;;;;;10321445;28;20219;-74
2020/12/07 14:50:38;;;;;;;0.20;0.10;;;12.70;99.90;;;;;;10333205;28;20278;-72
2020/12/07 14:55:44;;;;;;;0.40;0.40;;;13.20;99.90;;;;;;10332399;28;20738;-73
2020/12/07 15:01:12;;;;;;;0.20;0.10;;;13.70;99.90;;;;;;10332036;28;20306;-74
2020/12/07 15:06:19;;;;;;;0.20;0.13;;;13.20;99.90;;;;;;10332441;28;20219;-73
2020/12/07 15:11:49;;;;;;;0.47;0.47;;;12.90;99.90;;;;;;10329192;28;20234;-71
2020/12/07 15:16:53;;;;;;;0.70;0.20;;;13.60;99.90;;;;;;10330333;28;20269;-75
2020/12/07 15:21:57;;;;;;;3.20;0.37;;;13.60;99.90;;;;;;10330174;28;20656;-71
2020/12/07 15:27:00;;;;;;;0.20;0.13;;;13.00;99.90;;;;;;10328805;28;20206;-72
2020/12/07 15:32:02;;;;;;;0.20;0.10;;;12.60;99.90;;;;;;10328412;28;20345;-76
2020/12/07 15:37:06;;;;;;;0.20;0.10;;;12.40;99.90;;;;;;10306173;28;20286;-74
2020/12/07 15:42:08;;;;;;;0.43;0.43;;;12.80;99.90;;;;;;10329267;28;20206;-69
2020/12/07 15:47:11;;;;;;;0.83;0.40;;;12.90;99.90;;;;;;10327597;28;20203;-73
2020/12/07 15:52:14;;;;;;;0.50;0.30;;;12.60;99.90;;;;;;10328343;28;20213;-74
2020/12/07 15:57:17;;;;;;;0.20;0.17;;;12.30;99.90;;;;;;10327704;28;20254;-73
2020/12/07 16:02:20;;;;;;;0.33;0.27;;;12.10;99.90;;;;;;10328247;28;20206;-74
2020/12/07 16:07:24;;;;;;;2.27;0.77;;;11.90;99.90;;;;;;10327393;28;20192;-66
2020/12/07 16:12:27;;;;;;;6.53;1.00;;;11.90;99.90;;;;;;10327371;28;20764;-73
2020/12/07 16:17:30;;;;;;;0.40;0.37;;;11.90;99.90;;;;;;10342108;28;20574;-74
2020/12/07 16:22:33;;;;;;;1.27;0.63;;;11.70;99.90;;;;;;10327849;28;20200;-72
2020/12/07 16:27:36;;;;;;;0.20;0.00;;;11.70;99.90;;;;;;10326113;28;20212;-76
2020/12/07 16:32:39;;;;;;;0.43;0.23;;;11.70;99.90;;;;;;10306084;28;20200;-70
2020/12/07 16:37:42;;;;;;;0.30;0.27;;;11.70;99.90;;;;;;10285098;28;20254;-74
2020/12/07 16:42:45;;;;;;;0.20;0.20;;;11.70;99.90;;;;;;10285051;28;20206;-74
2020/12/07 16:47:48;;;;;;;0.50;0.50;;;11.70;99.90;;;;;;10287733;28;20200;-74
2020/12/07 16:52:52;;;;;;;1.20;0.60;;;11.60;99.90;;;;;;10293809;28;20195;-78
2020/12/07 16:57:54;;;;;;;1.17;0.67;;;11.50;99.90;;;;;;10289797;28;20410;-73
2020/12/07 17:02:57;;;;;;;1.17;0.70;;;11.50;99.90;;;;;;10283553;28;20468;-76
2020/12/07 17:08:01;;;;;;;1.20;0.40;;;11.50;99.90;;;;;;10313662;28;20946;-77
2020/12/07 17:13:04;;;;;;;2.43;0.87;;;11.70;99.90;;;;;;10326171;28;20689;-77
2020/12/07 17:18:07;;;;;;;0.20;0.20;;;11.80;99.90;;;;;;10325813;28;20285;-74
2020/12/07 17:23:11;;;;;;;1.00;0.77;;;11.70;99.90;;;;;;10318108;28;20265;-76
2020/12/07 17:28:13;;;;;;;1.30;0.60;;;11.70;99.90;;;;;;10320142;28;20215;-75
2020/12/07 17:33:16;;;;;;;0.30;0.30;;;11.80;99.90;;;;;;10324819;28;20195;-76
2020/12/07 17:38:20;;;;;;;1.53;0.83;;;11.60;99.90;;;;;;10324733;28;20227;-77
2020/12/07 17:43:23;;;;;;;1.03;0.70;;;11.60;99.90;;;;;;10322048;28;20618;-76
2020/12/07 17:48:27;;;;;;;0.87;0.87;;;11.50;99.90;;;;;;10318866;28;20219;-76
2020/12/07 17:53:30;;;;;;;1.17;0.87;;;11.40;99.90;;;;;;10299756;28;20557;-77
2020/12/07 17:58:34;;;;;;;0.57;0.57;;;11.50;99.90;;;;;;10284668;28;20306;-75
2020/12/07 18:03:36;;;;;;;0.87;0.87;;;11.30;99.90;;;;;;10284456;28;20287;-77
2020/12/07 18:08:40;;;;;;;1.87;1.63;;;11.20;99.90;;;;;;10286139;28;20204;-79
2020/12/07 18:13:43;;;;;;;1.23;1.13;;;11.20;99.90;;;;;;10287221;28;20235;-78
2020/12/07 18:18:45;;;;;;;8.83;5.10;;;11.00;99.90;;;;;;10283554;28;20612;-80
2020/12/07 18:23:48;;;;;;;0.60;0.60;;;10.90;99.90;;;;;;10284863;28;20204;-78
2020/12/07 18:28:51;;;;;;;0.63;0.50;;;10.70;99.90;;;;;;10284029;28;20227;-77
2020/12/07 18:33:55;;;;;;;1.67;1.03;;;10.60;99.90;;;;;;10309681;28;20219;-76
2020/12/07 18:38:59;;;;;;;1.00;0.83;;;10.60;99.90;;;;;;10325158;28;20318;-78
2020/12/07 18:44:01;;;;;;;1.10;1.10;;;10.60;99.90;;;;;;10327692;28;20195;-77
2020/12/07 18:49:05;;;;;;;1.13;0.67;;;10.40;99.90;;;;;;10327108;28;20199;-79
2020/12/07 18:54:08;;;;;;;0.50;0.50;;;10.20;99.90;;;;;;10327257;28;20226;-77
2020/12/07 18:59:11;;;;;;;5.73;1.43;;;10.40;99.90;;;;;;10360747;28;20249;-78
2020/12/07 19:04:13;;;;;;;6.50;2.20;;;10.40;99.90;;;;;;10368877;28;20532;-79
2020/12/07 19:09:18;;;;;;;1.07;0.70;;;10.50;99.90;;;;;;10371589;28;20206;-79
2020/12/07 19:14:21;;;;;;;0.40;0.40;;;10.40;99.90;;;;;;10369605;28;20254;-79
2020/12/07 19:19:23;;;;;;;3.40;0.97;;;10.50;99.90;;;;;;10371544;28;20232;-76
2020/12/07 19:24:27;;;;;;;0.20;0.20;;;10.70;99.90;;;;;;10371815;28;20697;-79
2020/12/07 19:29:29;;;;;;;0.67;0.37;;;10.80;99.90;;;;;;10371165;28;20560;-80
2020/12/07 19:34:32;;;;;;;0.80;0.67;;;10.70;99.90;;;;;;10340901;28;20202;-77
2020/12/07 19:39:35;;;;;;;1.73;1.40;;;10.70;99.90;;;;;;10329601;28;20223;-77
2020/12/07 19:44:39;;;;;;;0.50;0.50;;;10.80;99.90;;;;;;10329562;28;20211;-77
2020/12/07 19:49:42;;;;;;;0.63;0.63;;;10.80;99.90;;;;;;10328230;28;20191;-78
2020/12/07 19:54:45;;;;;;;0.83;0.77;;;10.80;99.90;;;;;;10326982;28;20660;-78
2020/12/07 19:59:48;;;;;;;1.93;1.70;;;10.90;99.90;;;;;;10330634;28;20230;-79
2020/12/07 20:04:50;;;;;;;0.20;0.10;;;11.30;99.90;;;;;;10326142;28;20210;-75
2020/12/07 20:09:53;;;;;;;0.20;0.17;;;11.70;99.90;;;;;;10324435;28;20196;-76
2020/12/07 20:14:57;;;;;;;1.50;0.70;;;12.20;99.90;;;;;;10293115;28;20251;-74
2020/12/07 20:20:03;;;;;;;0.73;0.73;;;11.60;99.90;;;;;;10304965;28;20622;-78
2020/12/07 20:25:08;;;;;;;0.73;0.73;;;11.20;99.90;;;;;;10329372;28;20219;-75
2020/12/07 20:30:11;;;;;;;2.40;0.90;;;10.90;99.90;;;;;;10327654;28;20227;-78
2020/12/07 20:35:13;;;;;;;1.57;0.97;;;10.60;99.90;;;;;;10328466;28;20204;-77
2020/12/07 20:40:17;;;;;;;0.40;0.40;;;10.50;99.90;;;;;;10328675;28;20759;-76
2020/12/07 20:45:20;;;;;;;0.57;0.40;;;10.60;99.90;;;;;;10327197;28;20286;-76
2020/12/07 20:50:22;;;;;;;0.60;0.60;;;10.60;99.90;;;;;;10327312;28;20196;-76
2020/12/07 20:55:26;;;;;;;0.97;0.57;;;10.60;99.90;;;;;;10327445;28;20236;-73
2020/12/07 21:00:31;;;;;;;0.23;0.20;;;10.30;99.90;;;;;;10327270;28;20223;-76
2020/12/07 21:05:34;;;;;;;0.60;0.60;;;10.30;99.90;;;;;;10324797;28;20282;-75
2020/12/07 21:10:37;;;;;;;3.40;0.40;;;10.30;99.90;;;;;;10326422;28;20802;-75
2020/12/07 21:15:40;;;;;;;0.30;0.30;;;10.20;99.90;;;;;;10326022;28;20644;-74
2020/12/07 21:20:43;;;;;;;1.27;1.17;;;10.10;99.90;;;;;;10326185;28;20318;-75
2020/12/07 21:25:47;;;;;;;5.70;0.67;;;10.10;99.90;;;;;;10325539;28;20202;-76
2020/12/07 21:30:50;;;;;;;0.70;0.67;;;10.10;99.90;;;;;;10325525;28;20659;-74
2020/12/07 21:35:52;;;;;;;0.20;0.17;;;9.90;99.90;;;;;;10327051;28;20195;-75
2020/12/07 21:40:56;;;;;;;0.57;0.37;;;10.00;99.90;;;;;;10327534;28;20330;-76
2020/12/07 21:45:59;;;;;;;1.23;1.13;;;10.00;99.90;;;;;;10325780;28;20336;-75
2020/12/07 21:51:01;;;;;;;2.00;0.93;;;9.90;99.90;;;;;;10327384;28;20345;-75
2020/12/07 21:56:05;;;;;;;0.30;0.30;;;9.80;99.90;;;;;;10327052;28;20188;-77
2020/12/07 22:01:09;;;;;;;0.20;0.10;;;9.80;99.90;;;;;;10326349;28;20219;-74
2020/12/07 22:06:13;;;;;;;0.30;0.30;;;9.80;99.90;;;;;;10326602;28;20651;-75
2020/12/07 22:11:22;;;;;;;0.80;0.80;;;9.80;99.90;;;;;;10326191;28;20306;-74
2020/12/07 22:16:25;;;;;;;1.03;0.47;;;9.80;99.90;;;;;;10326247;28;20198;-74
2020/12/07 22:21:27;;;;;;;0.70;0.40;;;9.90;99.90;;;;;;10324959;28;20200;-75
2020/12/07 22:26:31;;;;;;;0.20;0.10;;;10.00;99.90;;;;;;10326211;28;20195;-74
2020/12/07 22:31:35;;;;;;;0.20;0.10;;;10.10;99.90;;;;;;10324109;28;20188;-73
2020/12/07 22:36:37;;;;;;;1.50;0.53;;;10.00;99.90;;;;;;10326299;28;20220;-73
2020/12/07 22:41:41;;;;;;;0.57;0.40;;;9.80;99.90;;;;;;10329772;28;20204;-73
2020/12/07 22:46:47;;;;;;;0.20;0.10;;;9.60;99.90;;;;;;10329406;28;20205;-74
2020/12/07 22:51:50;;;;;;;0.30;0.17;;;9.80;99.90;;;;;;10333496;28;20203;-74
2020/12/07 22:56:53;;;;;;;0.20;0.10;;;9.90;99.90;;;;;;10332935;28;20223;-75
2020/12/07 23:01:56;;;;;;;0.47;0.47;;;9.90;99.90;;;;;;10333180;28;20445;-74
2020/12/07 23:06:58;;;;;;;0.20;0.10;;;9.90;99.90;;;;;;10332404;28;20559;-74
2020/12/07 23:12:03;;;;;;;10.73;0.67;;;9.80;99.90;;;;;;10332571;28;20224;-75
2020/12/07 23:17:07;;;;;;;0.20;0.10;;;9.80;99.90;;;;;;10332113;28;20247;-72
2020/12/07 23:22:09;;;;;;;0.20;0.10;;;9.80;99.90;;;;;;10332120;28;20222;-74
2020/12/07 23:27:13;;;;;;;0.30;0.27;;;9.80;99.90;;;;;;10331945;28;20223;-74
2020/12/07 23:32:16;;;;;;;0.20;0.10;;;9.70;99.90;;;;;;10331364;28;20219;-73
2020/12/07 23:37:18;;;;;;;0.63;0.63;;;9.80;99.90;;;;;;10331593;28;20714;-74
2020/12/07 23:42:21;;;;;;;0.33;0.27;;;9.70;99.90;;;;;;10330514;28;20202;-74
2020/12/07 23:47:28;;;;;;;0.50;0.20;;;9.70;99.90;;;;;;10331474;28;20222;-74
2020/12/07 23:52:31;;;;;;;5.87;0.40;;;9.70;99.90;;;;;;10329783;28;20715;-75
2020/12/07 23:57:35;;;;;;;0.83;0.50;;;9.60;99.90;;;;;;10331022;28;20218;-73
